Skip Navigation Links
NOAA logo - Click to go to the NOAA homepage
NOAA's National Weather Service
Alaska Aviation Weather Unit
  NWS logo - Click to go to the NWS homepage
Left Navbar Graphic     23 AKDT = 07 GMT

   
NOAA is celebrating 200 years of science, service, and stewardship. Visit the NOAA 200th celebration Web site to learn more.
USA.gov is the U.S. Government's official Web portal to all Federal, state and local government Web resources and services.
Facebook
NWS on Facebook

Important Change Regarding the AAWU Web Presence

 

Over the last several months, the AAWU has been working to navigate its webpages to a nationally supported server. Security, as well as other needs, have necessitated the change.  In the process, we have made an effort to enhance the functionality of our website, as well as some of our products. As of June 20, 2017, aawu.arh.noaa.gov will be discontinued. The new AAWU web address is weather.gov/aawu. It is now live and will run in-parallel with the old site until it is discontinued. Please send any feedback or questions regarding the new webpages to nws.ar.aawu.webauthors@noaa.gov.  Thank you for your patience during this time of transition.
AAWU Home :: Display TAF Add Bookmark
TAF PABI 240600Z 2406/2512 VRB06KT 9999 SCT040 BKN070 600705
      QNH2982INS
      BECMG 2417/2418 17015G25KT 9999 SCT060 BKN100 QNH2970INS
      TEMPO 2418/2423 17020G35KT
      BECMG 2506/2507 VRB06KT 9999 SCT060 BKN100 QNH2966INS
      TX12/2423Z TN06/2413Z=

METAR PABI 240153Z 26006KT 10SM OVC060 09/04 A2995= METAR PABI 240253Z 30007KT 10SM BKN070 10/02 A2995= METAR PABI 240353Z 23003KT 10SM BKN070 11/01 A2994= METAR PABI 240453Z 20003KT 10SM SCT070 11/01 A2995= METAR PABI 240553Z AUTO 00000KT 10SM CLR 11/01 A2994= METAR PABI 240653Z AUTO 28006KT 10SM SCT065 09/02 A2997=
 Alaska TAF Map

NOAA's National Weather Service
Alaska Aviation Weather Unit
6930 Sand Lake Road
Anchorage, AK 99502-1845
Disclaimer
Credits
Glossary
Privacy Policy
About Us
Career Opportunities
Contact AAWU Internet Services Site last modified: April, 17th 2012